CA-0485 weather

CLOSED De Lesseps Field
Toronto, Ontario, Canada

Public forecast

Using degrees Celsius for public forecast. Weather courtesy of forecast.io.

METAR (pilot weather report)

Closest report is Lester B. Pearson International Airport, 6.0 nm (11.1 km) WSW. Retrieved 2019/01/24 06:00 UTC (13 minutes ago):

CYYZ 240600Z CCA 29009KT 15SM -RA BKN014 OVC022 03/02 A2956 RMK SC5SC3 SLP017

TAF (pilot weather forecast)

Closest forecast is Lester B. Pearson International Airport, 6.0 nm (11.1 km) WSW. Retrieved 2019/01/24 06:42 UTC (0 seconds ago):

TAF CYYZ 240539Z 2406/2512 25010KT 5SM BR BKN012 OVC025 TEMPO 2406/2409 P6SM -RA SCT012 OVC025 PROB30 2408/2409 4SM -SNPL BR FM240900 29012KT 21/2SM -SN BKN012 OVC030 TEMPO 2409/2413 6SM -SN SCT012 OVC030 FM241300 32012G22KT P6SM BKN030 OVC100 BECMG 2415/2416 31015G25KT FM242300 27012G22KT 6SM -SHSN BKN025 FM250200 25010G20KT 3SM -SHSN BKN020 FM250700 24012G22KT P6SM SCT020 BKN040 RMK NXT FCST BY 240900Z